This is the latest recevied weather packets stored in our database for station/object N6GPM. If no packets are shown the sender has not sent any weather packets the latest 10 day(s).
| Time | Temp. | Humidity | Pressure | Rain* | Wind** | Luminosity | Snow |
|---|---|---|---|---|---|---|---|
| 1788465103 | 26.67° C | 36% | 1017.5 hPa | 0 mm | - | 976 W/m² | - |
| 1788464803 | 26.11° C | 38% | 1017.3 hPa | 0 mm | - | 974 W/m² | - |
| 1788464498 | 27.22° C | 36% | 1017.4 hPa | 0 mm | - | 972 W/m² | - |
| 1788464194 | 27.22° C | 34% | 1017.5 hPa | 0 mm | - | 976 W/m² | - |
| 1788463889 | 27.22° C | 33% | 1017.7 hPa | 0 mm | - | 982 W/m² | - |
| 1788463585 | 27.78° C | 32% | 1017.6 hPa | 0 mm | - | 977 W/m² | - |
| 1788463281 | 27.78° C | 33% | 1017.9 hPa | 0 mm | - | 974 W/m² | - |
| 1788462976 | 27.22° C | 33% | 1017.8 hPa | 0 mm | - | 966 W/m² | - |
| 1788462671 | 26.11° C | 36% | 1017.7 hPa | 0 mm | - | 964 W/m² | - |
| 1788462370 | 26.67° C | 35% | 1018 hPa | 0 mm | - | 962 W/m² | - |
| 1788462065 | 26.11° C | 35% | 1018.2 hPa | 0 mm | - | 962 W/m² | - |
| 1788461761 | 26.11° C | 36% | 1018.4 hPa | 0 mm | - | 957 W/m² | - |
| 1788461456 | 26.67° C | 37% | 1018.2 hPa | 0 mm | - | 953 W/m² | - |
| 1788461152 | 26.11° C | 38% | 1018.3 hPa | 0 mm | - | 943 W/m² | - |
| 1788460847 | 25.56° C | 38% | 1018.4 hPa | 0 mm | - | 940 W/m² | - |
| 1788460546 | 25.56° C | 38% | 1018.6 hPa | 0 mm | - | 936 W/m² | - |
| 1788460241 | 25.56° C | 38% | 1018.5 hPa | 0 mm | - | 927 W/m² | - |
| 1788459940 | 25° C | 38% | 1018.5 hPa | 0 mm | - | 915 W/m² | - |
| 1788459636 | 24.44° C | 41% | 1018.6 hPa | 0 mm | - | 906 W/m² | - |
| 1788459329 | 23.89° C | 42% | 1018.6 hPa | 0 mm | - | 901 W/m² | - |
| 1788459029 | 23.89° C | 41% | 1018.6 hPa | 0 mm | - | 888 W/m² | - |
| 1788458724 | 24.44° C | 41% | 1018.7 hPa | 0 mm | - | 878 W/m² | - |
| 1788458424 | 23.89° C | 41% | 1018.5 hPa | 0 mm | - | 865 W/m² | - |
| 1788458122 | 23.89° C | 43% | 1018.6 hPa | 0 mm | - | 855 W/m² | - |
| 1788457822 | 24.44° C | 43% | 1018.6 hPa | 0 mm | - | 842 W/m² | - |
* Rain latest hour (hover to see other rain measurements)
** Current wind speed in m/s (hover to see current wind gust speed)